VA84 weather

Point Farm Heliport
Cape Charles, Virginia, United States

Public forecast

Using degrees Fahrenheit for public forecast. Weather courtesy of forecast.io.

Closest aviation weather report (METAR) to Point Farm Heliport

Closest report is Langley Air Force Base, 21.4 nm (39.6 km) SW. Retrieved 2020/08/06 09:56 UTC (17 minutes ago):

KLFI 060956Z AUTO 23003KT 10SM CLR 25/25 A3005 RMK AO2 SLP182 T02470247

Closest aviation forecast (TAF) to Point Farm Heliport

Closest forecast is Langley Air Force Base, 21.4 nm (39.6 km) SW. Retrieved 2020/08/06 09:15 UTC (58 minutes ago):

TAF KLFI 060900Z 0609/0715 VRB06KT 6000 BR BKN015 QNH3004INS BECMG 0614/0615 16009KT 9999 NSW BKN015 QNH3006INS TEMPO 0619/0701 19015G20KT 8000 -TSRA BKN012CB OVC019 BECMG 0712/0713 24012KT 9999 BKN020 QNH3004INS TX28/0618Z TN24/0609Z